Time;durP1;ratioP1;P1;durP2;ratioP2;P2;SDS_P1;SDS_P2;PMS_P1;PMS_P2;Temp;Humidity;BMP_temperature;BMP_pressure;BME280_temperature;BME280_humidity;BME280_pressure;Samples;Min_cycle;Max_cycle;Signal;HPM_P1;HPM_P2
2022/08/10 00:02:31;;;;;;;;;;;20.20;61.60;;;;;;5031066;28;19920;-83
2022/08/10 00:04:56;;;;;;;;;;;20.00;62.70;;;;;;5015908;28;19918;-83
2022/08/10 00:07:22;;;;;;;;;;;19.80;63.40;;;;;;5025895;28;19913;-84
2022/08/10 00:09:47;;;;;;;;;;;19.90;63.20;;;;;;5027434;28;19919;-84
2022/08/10 00:12:13;;;;;;;;;;;19.70;63.70;;;;;;5030327;28;19941;-84
2022/08/10 00:14:38;;;;;;;;;;;19.80;63.40;;;;;;5049685;28;19921;-84
2022/08/10 00:17:04;;;;;;;;;;;19.60;64.20;;;;;;5044353;28;19924;-85
2022/08/10 00:19:29;;;;;;;;;;;19.60;64.00;;;;;;5041740;28;19913;-81
2022/08/10 00:21:55;;;;;;;;;;;19.60;63.80;;;;;;5024983;28;19963;-83
2022/08/10 00:24:20;;;;;;;;;;;19.50;64.90;;;;;;5017205;28;20021;-83
2022/08/10 00:26:46;;;;;;;;;;;19.50;64.80;;;;;;5037022;28;19913;-83
2022/08/10 00:29:11;;;;;;;;;;;19.50;65.10;;;;;;5020127;28;19939;-83
2022/08/10 00:31:37;;;;;;;;;;;19.40;65.90;;;;;;5064580;22;19917;-82
2022/08/10 00:34:02;;;;;;;;;;;19.20;66.50;;;;;;5055282;28;19921;-84
2022/08/10 00:36:28;;;;;;;;;;;19.30;66.10;;;;;;5061135;28;19970;-84
2022/08/10 00:38:53;;;;;;;;;;;19.40;65.50;;;;;;5084923;28;19913;-83
2022/08/10 00:41:19;;;;;;;;;;;19.30;66.20;;;;;;5060375;28;19964;-85
2022/08/10 00:43:44;;;;;;;;;;;19.30;66.60;;;;;;5059655;28;19920;-84
2022/08/10 00:46:09;;;;;;;;;;;19.30;66.20;;;;;;5073473;28;19996;-84
2022/08/10 00:48:35;;;;;;;;;;;19.30;66.20;;;;;;5068529;28;19932;-83
2022/08/10 00:51:01;;;;;;;;;;;19.50;65.40;;;;;;5076441;28;19913;-83
2022/08/10 00:53:27;;;;;;;;;;;19.30;66.50;;;;;;5080497;28;19916;-83
2022/08/10 00:55:52;;;;;;;;;;;19.30;66.20;;;;;;5072023;28;19932;-84
2022/08/10 00:58:18;;;;;;;;;;;19.30;66.10;;;;;;5075405;28;20008;-84
2022/08/10 01:00:46;;;;;;;;;;;19.50;65.40;;;;;;5077525;28;20015;-83
2022/08/10 01:03:13;;;;;;;;;;;19.30;66.70;;;;;;5085200;28;19913;-83
2022/08/10 01:05:44;;;;;;;;;;;19.10;67.00;;;;;;5073591;28;20292;-82
2022/08/10 01:08:09;;;;;;;;;;;19.10;66.80;;;;;;5076760;28;19912;-84
2022/08/10 01:10:53;;;;;;;;;;;19.00;67.30;;;;;;5082669;28;19959;-83
2022/08/10 01:13:43;;;;;;;;;;;19.00;67.80;;;;;;5080132;28;19914;-82
2022/08/10 01:16:26;;;;;;;;;;;19.00;68.00;;;;;;5087198;28;19916;-82
2022/08/10 01:19:12;;;;;;;;;;;19.00;67.70;;;;;;5083293;28;19919;-82
2022/08/10 01:21:53;;;;;;;;;;;19.10;67.40;;;;;;5052467;28;19908;-83
2022/08/10 01:24:28;;;;;;;;;;;19.00;68.00;;;;;;5070602;28;19927;-83
2022/08/10 01:27:05;;;;;;;;;;;18.90;68.30;;;;;;5070200;28;19912;-83
2022/08/10 01:29:34;;;;;;;;;;;18.90;68.60;;;;;;5067472;28;19923;-84
2022/08/10 01:32:03;;;;;;;;;;;18.90;69.40;;;;;;5063607;28;19912;-83
2022/08/10 01:34:32;;;;;;;;;;;19.00;68.90;;;;;;5072160;28;19912;-84
2022/08/10 01:37:00;;;;;;;;;;;18.90;69.30;;;;;;5065455;28;20045;-83
2022/08/10 01:39:29;;;;;;;;;;;18.80;69.50;;;;;;5054261;28;20010;-84
2022/08/10 01:41:55;;;;;;;;;;;18.80;69.80;;;;;;5071885;28;19921;-83
2022/08/10 01:44:42;;;;;;;;;;;18.90;69.50;;;;;;5053874;28;19985;-83
2022/08/10 01:50:07;;;;;;;;;;;18.80;70.00;;;;;;5065730;28;20064;-84
2022/08/10 01:52:33;;;;;;;;;;;18.80;70.00;;;;;;5045434;28;19912;-84
2022/08/10 01:54:59;;;;;;;;;;;18.70;70.10;;;;;;5046918;28;20096;-84
2022/08/10 01:57:26;;;;;;;;;;;18.60;70.70;;;;;;5046106;28;20406;-83
2022/08/10 01:59:52;;;;;;;;;;;18.70;70.80;;;;;;5066390;28;19948;-84
2022/08/10 02:02:18;;;;;;;;;;;18.80;70.00;;;;;;5052490;28;19951;-83
2022/08/10 02:04:46;;;;;;;;;;;18.80;70.40;;;;;;5073215;28;19947;-83
2022/08/10 02:07:13;;;;;;;;;;;18.80;70.30;;;;;;5045221;28;20372;-84
2022/08/10 02:09:41;;;;;;;;;;;18.70;70.40;;;;;;5071989;28;19938;-84
2022/08/10 02:12:08;;;;;;;;;;;18.60;71.00;;;;;;5064531;28;20307;-84
2022/08/10 02:14:34;;;;;;;;;;;18.50;71.40;;;;;;5048367;28;19920;-84
2022/08/10 02:17:20;;;;;;;;;;;18.40;72.00;;;;;;5046344;28;19912;-83
2022/08/10 02:19:46;;;;;;;;;;;18.30;72.10;;;;;;5060825;28;19923;-83
2022/08/10 02:22:13;;;;;;;;;;;18.20;72.20;;;;;;5070147;28;19920;-83
2022/08/10 02:24:39;;;;;;;;;;;18.10;72.50;;;;;;5048386;28;19947;-83
2022/08/10 02:27:06;;;;;;;;;;;18.10;72.50;;;;;;5055485;28;19919;-82
2022/08/10 02:29:32;;;;;;;;;;;18.10;72.80;;;;;;5052856;28;20379;-83
2022/08/10 02:31:57;;;;;;;;;;;18.00;72.80;;;;;;5052665;28;19980;-83
2022/08/10 02:34:24;;;;;;;;;;;18.00;73.70;;;;;;5069831;28;19951;-84
2022/08/10 02:36:52;;;;;;;;;;;18.00;73.50;;;;;;5051575;28;19987;-84
2022/08/10 02:39:19;;;;;;;;;;;18.00;74.00;;;;;;5053506;28;19960;-84
2022/08/10 02:41:54;;;;;;;;;;;18.00;73.80;;;;;;5073188;28;19912;-83
2022/08/10 02:44:23;;;;;;;;;;;18.00;73.80;;;;;;5052849;28;19938;-82
2022/08/10 02:46:53;;;;;;;;;;;18.00;74.20;;;;;;5069569;28;19931;-83
2022/08/10 02:49:20;;;;;;;;;;;18.10;73.80;;;;;;5056369;28;19927;-83
2022/08/10 02:51:53;;;;;;;;;;;18.00;73.80;;;;;;5056332;28;20360;-83
2022/08/10 02:54:23;;;;;;;;;;;18.20;72.90;;;;;;5076455;28;19917;-82
2022/08/10 02:57:01;;;;;;;;;;;18.20;73.00;;;;;;5056266;28;20015;-83
2022/08/10 02:59:30;;;;;;;;;;;18.30;72.30;;;;;;5072039;28;19955;-84
2022/08/10 03:01:58;;;;;;;;;;;18.20;72.90;;;;;;5068875;28;20011;-82
2022/08/10 03:04:26;;;;;;;;;;;18.00;73.50;;;;;;5068143;28;19921;-83
2022/08/10 03:06:59;;;;;;;;;;;18.00;73.70;;;;;;5070171;28;20018;-83
2022/08/10 03:09:25;;;;;;;;;;;18.00;73.50;;;;;;5038822;28;20039;-82
2022/08/10 03:11:52;;;;;;;;;;;18.00;74.30;;;;;;5067309;28;19923;-83
2022/08/10 03:14:18;;;;;;;;;;;17.90;74.50;;;;;;5066183;28;20000;-82
2022/08/10 03:16:45;;;;;;;;;;;17.90;74.40;;;;;;5071550;28;19959;-83
2022/08/10 03:19:11;;;;;;;;;;;18.00;74.00;;;;;;5075054;28;19913;-83
2022/08/10 03:21:37;;;;;;;;;;;17.90;74.30;;;;;;5046346;28;19917;-83
2022/08/10 03:24:04;;;;;;;;;;;18.00;73.80;;;;;;5050477;28;19917;-82
2022/08/10 03:26:30;;;;;;;;;;;18.00;73.70;;;;;;5079720;28;19943;-84
2022/08/10 03:28:57;;;;;;;;;;;18.00;73.60;;;;;;5054053;28;19916;-84
2022/08/10 03:31:24;;;;;;;;;;;18.00;73.50;;;;;;5078958;28;19913;-82
2022/08/10 03:33:51;;;;;;;;;;;18.00;73.80;;;;;;5079189;28;19938;-83
2022/08/10 03:36:16;;;;;;;;;;;17.80;73.90;;;;;;5054150;28;20362;-83
2022/08/10 03:38:44;;;;;;;;;;;17.70;74.50;;;;;;5071565;28;19917;-82
2022/08/10 03:41:11;;;;;;;;;;;17.70;75.00;;;;;;5067378;28;19939;-82
2022/08/10 03:43:38;;;;;;;;;;;17.60;75.10;;;;;;5072282;28;19951;-83
2022/08/10 03:46:05;;;;;;;;;;;17.80;74.90;;;;;;5053206;28;19928;-83
2022/08/10 03:48:31;;;;;;;;;;;17.80;74.30;;;;;;5052357;28;19913;-82
2022/08/10 03:50:59;;;;;;;;;;;17.80;74.60;;;;;;5073269;28;20334;-83
2022/08/10 03:53:24;;;;;;;;;;;17.60;75.20;;;;;;5054744;28;19913;-82
2022/08/10 03:55:50;;;;;;;;;;;17.60;75.70;;;;;;5066679;28;19923;-82
2022/08/10 03:58:16;;;;;;;;;;;17.80;74.90;;;;;;5055005;28;19919;-83
2022/08/10 04:00:41;;;;;;;;;;;17.70;74.70;;;;;;5076103;28;20045;-84
2022/08/10 04:03:07;;;;;;;;;;;17.50;75.20;;;;;;5076988;28;19939;-85
2022/08/10 04:05:33;;;;;;;;;;;17.50;75.50;;;;;;5055686;28;19912;-84
2022/08/10 04:07:59;;;;;;;;;;;17.50;75.40;;;;;;5077747;28;19958;-83
2022/08/10 04:10:25;;;;;;;;;;;17.60;75.20;;;;;;5076641;28;19908;-84
2022/08/10 04:12:50;;;;;;;;;;;17.60;75.00;;;;;;5056052;28;19948;-84
2022/08/10 04:15:16;;;;;;;;;;;17.60;75.10;;;;;;5062050;28;20016;-84
2022/08/10 04:17:42;;;;;;;;;;;17.70;74.40;;;;;;5057382;28;19913;-83
2022/08/10 04:20:10;;;;;;;;;;;17.50;75.30;;;;;;5076158;28;19917;-84
2022/08/10 04:22:36;;;;;;;;;;;17.60;74.70;;;;;;5075455;28;19913;-82
2022/08/10 04:25:03;;;;;;;;;;;17.60;74.60;;;;;;5051720;28;19923;-84
2022/08/10 04:27:30;;;;;;;;;;;17.60;74.70;;;;;;5052058;28;19916;-84
2022/08/10 04:29:56;;;;;;;;;;;17.70;74.50;;;;;;5066369;28;20012;-83
2022/08/10 04:32:22;;;;;;;;;;;17.50;74.90;;;;;;5056896;28;19916;-83
2022/08/10 04:34:49;;;;;;;;;;;17.50;75.10;;;;;;5076643;28;19963;-83
2022/08/10 04:37:15;;;;;;;;;;;17.50;75.50;;;;;;5062332;28;19946;-84
2022/08/10 04:39:40;;;;;;;;;;;17.60;75.60;;;;;;5052385;28;20986;-84
2022/08/10 04:42:06;;;;;;;;;;;17.70;74.40;;;;;;5061923;28;20419;-84
2022/08/10 04:44:32;;;;;;;;;;;17.60;75.20;;;;;;5071389;28;20286;-84
2022/08/10 04:46:57;;;;;;;;;;;17.50;75.40;;;;;;5054879;28;19917;-84
2022/08/10 04:49:22;;;;;;;;;;;17.30;75.50;;;;;;5047399;28;19928;-84
2022/08/10 04:51:48;;;;;;;;;;;17.40;75.20;;;;;;5050801;28;20007;-84
2022/08/10 04:54:13;;;;;;;;;;;17.50;75.30;;;;;;5055292;28;19940;-84
2022/08/10 04:56:39;;;;;;;;;;;17.60;74.70;;;;;;5073114;28;19917;-85
2022/08/10 04:59:06;;;;;;;;;;;17.50;75.60;;;;;;5066616;28;20428;-83
2022/08/10 05:01:31;;;;;;;;;;;17.50;75.30;;;;;;5042772;28;20264;-82
2022/08/10 05:03:57;;;;;;;;;;;17.60;74.80;;;;;;5045306;28;20042;-83
2022/08/10 05:06:22;;;;;;;;;;;17.60;74.80;;;;;;5048630;28;20291;-82
2022/08/10 05:08:47;;;;;;;;;;;17.70;74.20;;;;;;5065120;28;19998;-83
2022/08/10 05:11:13;;;;;;;;;;;17.70;74.60;;;;;;5067831;28;20256;-82
2022/08/10 05:13:38;;;;;;;;;;;17.70;74.60;;;;;;5064320;28;19921;-84
2022/08/10 05:16:04;;;;;;;;;;;17.80;74.40;;;;;;5050823;28;19919;-84
2022/08/10 05:18:29;;;;;;;;;;;17.80;74.50;;;;;;5064537;28;19916;-84
2022/08/10 05:20:55;;;;;;;;;;;17.80;74.40;;;;;;5045914;28;19912;-84
2022/08/10 05:23:20;;;;;;;;;;;17.90;74.60;;;;;;5071020;28;20070;-85
2022/08/10 05:25:46;;;;;;;;;;;17.90;74.20;;;;;;5075703;28;19922;-85
2022/08/10 05:28:37;;;;;;;;;;;18.10;73.00;;;;;;5072590;28;19987;-84
2022/08/10 05:31:10;;;;;;;;;;;18.10;73.20;;;;;;5062023;28;20272;-84
2022/08/10 05:33:36;;;;;;;;;;;18.10;73.80;;;;;;5074334;28;19960;-84
2022/08/10 05:36:07;;;;;;;;;;;18.20;73.00;;;;;;5060029;28;19916;-84
2022/08/10 05:38:33;;;;;;;;;;;18.10;73.20;;;;;;5053453;28;19967;-83
2022/08/10 05:40:58;;;;;;;;;;;18.10;73.20;;;;;;5073878;28;19936;-80
2022/08/10 05:43:24;;;;;;;;;;;18.20;73.40;;;;;;5065347;28;19913;-81
2022/08/10 05:45:50;;;;;;;;;;;18.20;73.50;;;;;;5072394;28;20001;-84
2022/08/10 05:48:15;;;;;;;;;;;18.30;72.40;;;;;;5082544;28;19913;-83
2022/08/10 05:50:41;;;;;;;;;;;18.30;72.60;;;;;;5076092;28;19916;-83
2022/08/10 05:53:06;;;;;;;;;;;18.50;71.00;;;;;;5067613;28;19980;-82
2022/08/10 05:55:32;;;;;;;;;;;18.40;72.10;;;;;;5064172;28;19964;-83
2022/08/10 05:57:59;;;;;;;;;;;18.50;72.60;;;;;;5073784;28;19909;-83
2022/08/10 06:00:25;;;;;;;;;;;18.50;72.50;;;;;;5082214;28;19917;-84
2022/08/10 06:02:56;;;;;;;;;;;18.50;72.60;;;;;;5064421;28;19932;-84
2022/08/10 06:05:22;;;;;;;;;;;18.60;72.30;;;;;;5077718;28;20275;-84
2022/08/10 06:07:57;;;;;;;;;;;18.70;71.70;;;;;;5054517;28;19920;-84
2022/08/10 06:10:23;;;;;;;;;;;18.70;70.90;;;;;;5058388;28;19908;-84
2022/08/10 06:14:59;;;;;;;;;;;18.80;70.30;;;;;;5059911;28;19928;-84
2022/08/10 06:15:35;;;;;;;;;;;18.90;68.50;;;;;;5076309;28;19917;-84
2022/08/10 06:18:02;;;;;;;;;;;19.10;68.40;;;;;;5061138;28;19956;-82
2022/08/10 06:20:28;;;;;;;;;;;19.10;68.60;;;;;;5051307;28;20336;-81
2022/08/10 06:22:53;;;;;;;;;;;19.30;68.80;;;;;;5075239;28;19912;-81
2022/08/10 06:25:19;;;;;;;;;;;19.60;67.90;;;;;;5078446;28;19920;-82
2022/08/10 06:27:45;;;;;;;;;;;19.90;65.90;;;;;;5078988;28;19936;-83
2022/08/10 06:30:11;;;;;;;;;;;20.00;65.30;;;;;;5062515;28;19966;-82
2022/08/10 06:32:37;;;;;;;;;;;20.10;65.60;;;;;;5093614;22;19916;-83
2022/08/10 06:35:03;;;;;;;;;;;19.90;65.50;;;;;;5049710;28;19929;-84
2022/08/10 06:37:29;;;;;;;;;;;19.80;65.20;;;;;;5034024;28;19945;-84
2022/08/10 06:39:54;;;;;;;;;;;19.70;65.40;;;;;;5053527;28;19913;-84
2022/08/10 06:42:36;;;;;;;;;;;19.60;66.20;;;;;;5059201;28;19935;-83
2022/08/10 06:45:08;;;;;;;;;;;19.60;66.60;;;;;;5058746;28;20143;-82
2022/08/10 06:47:38;;;;;;;;;;;19.60;64.90;;;;;;5070302;28;19952;-84
2022/08/10 06:50:09;;;;;;;;;;;19.70;65.60;;;;;;5051423;28;19939;-84
2022/08/10 06:52:36;;;;;;;;;;;19.70;64.60;;;;;;5057272;28;19959;-84
2022/08/10 06:55:02;;;;;;;;;;;19.70;65.10;;;;;;5039693;28;19920;-84
2022/08/10 06:57:31;;;;;;;;;;;19.60;64.50;;;;;;5049540;28;19916;-84
2022/08/10 06:59:58;;;;;;;;;;;19.70;64.60;;;;;;5024087;28;19917;-84
2022/08/10 07:02:25;;;;;;;;;;;19.80;64.70;;;;;;5040217;28;19919;-84
2022/08/10 07:04:55;;;;;;;;;;;19.70;64.30;;;;;;5065745;28;19905;-84
2022/08/10 07:07:26;;;;;;;;;;;19.70;64.70;;;;;;5053431;28;19913;-84
2022/08/10 07:09:51;;;;;;;;;;;19.80;64.70;;;;;;5057048;28;20450;-84
2022/08/10 07:12:18;;;;;;;;;;;19.90;64.00;;;;;;5040273;28;19917;-82
2022/08/10 07:14:44;;;;;;;;;;;19.90;63.60;;;;;;5028374;28;20324;-83
2022/08/10 07:17:11;;;;;;;;;;;20.00;63.70;;;;;;5031294;28;19963;-80
2022/08/10 07:19:38;;;;;;;;;;;20.00;63.90;;;;;;5051471;28;19927;-83
2022/08/10 07:22:04;;;;;;;;;;;20.10;64.00;;;;;;5055172;28;19921;-84
2022/08/10 07:24:33;;;;;;;;;;;20.20;63.10;;;;;;5043204;28;20415;-83
2022/08/10 07:26:59;;;;;;;;;;;20.20;62.80;;;;;;5055863;28;19956;-82
2022/08/10 07:29:29;;;;;;;;;;;20.30;62.60;;;;;;5074778;28;19907;-79
2022/08/10 07:31:56;;;;;;;;;;;20.50;63.40;;;;;;5050275;28;19917;-81
2022/08/10 07:34:22;;;;;;;;;;;20.60;62.90;;;;;;5047804;28;20338;-82
2022/08/10 07:36:51;;;;;;;;;;;20.60;62.40;;;;;;5069120;28;19920;-81
2022/08/10 07:39:18;;;;;;;;;;;20.60;62.10;;;;;;5067372;28;19909;-83
2022/08/10 07:41:45;;;;;;;;;;;20.60;61.30;;;;;;5061365;28;20279;-81
2022/08/10 07:44:11;;;;;;;;;;;20.60;60.80;;;;;;5036189;28;19912;-82
2022/08/10 07:46:38;;;;;;;;;;;20.70;60.70;;;;;;5051815;28;20283;-85
2022/08/10 07:49:07;;;;;;;;;;;20.70;60.90;;;;;;5038988;28;19919;-83
2022/08/10 07:51:33;;;;;;;;;;;20.80;60.50;;;;;;5036322;28;20401;-87
2022/08/10 07:54:04;;;;;;;;;;;20.90;60.30;;;;;;5052509;28;19917;-85
2022/08/10 07:56:32;;;;;;;;;;;20.90;59.80;;;;;;5037423;28;20011;-88
2022/08/10 07:59:06;;;;;;;;;;;21.00;59.80;;;;;;5057394;28;20010;-89
2022/08/10 08:01:34;;;;;;;;;;;21.20;58.80;;;;;;5037526;28;19917;-88
2022/08/10 08:04:00;;;;;;;;;;;21.30;59.00;;;;;;5033790;28;20329;-88
2022/08/10 08:06:26;;;;;;;;;;;21.70;55.60;;;;;;5054154;28;19942;-90
2022/08/10 08:08:52;;;;;;;;;;;21.60;56.50;;;;;;5052288;28;19917;-87
2022/08/10 08:11:18;;;;;;;;;;;21.60;56.10;;;;;;5037745;28;19916;-87
2022/08/10 08:13:44;;;;;;;;;;;21.50;57.60;;;;;;5053299;28;19909;-87
2022/08/10 08:16:10;;;;;;;;;;;21.50;57.00;;;;;;5038361;28;19912;-86
2022/08/10 08:19:14;;;;;;;;;;;21.60;57.30;;;;;;5037181;28;19921;-89
2022/08/10 08:25:23;;;;;;;;;;;21.70;56.30;;;;;;5049995;28;19909;-88
2022/08/10 08:31:11;;;;;;;;;;;21.80;56.80;;;;;;4972835;28;19926;-89
2022/08/10 08:33:37;;;;;;;;;;;22.00;55.60;;;;;;5045576;28;20025;-84
2022/08/10 08:36:03;;;;;;;;;;;22.00;55.90;;;;;;5042519;28;20409;-82
2022/08/10 08:38:28;;;;;;;;;;;22.10;56.40;;;;;;5050648;28;20007;-82
2022/08/10 08:41:06;;;;;;;;;;;22.10;56.50;;;;;;5052046;28;19948;-83
2022/08/10 08:43:45;;;;;;;;;;;22.20;57.00;;;;;;5050693;28;20342;-82
2022/08/10 08:46:31;;;;;;;;;;;22.40;55.90;;;;;;5047505;28;19989;-82
2022/08/10 08:48:57;;;;;;;;;;;22.50;54.20;;;;;;5047202;28;19913;-82
2022/08/10 08:51:41;;;;;;;;;;;22.60;54.00;;;;;;5044364;28;19920;-82
2022/08/10 08:54:07;;;;;;;;;;;22.80;53.80;;;;;;5045107;28;20578;-81
2022/08/10 08:56:45;;;;;;;;;;;22.80;54.00;;;;;;5045481;28;19950;-79
2022/08/10 08:59:22;;;;;;;;;;;22.80;54.30;;;;;;5071961;28;19923;-81
2022/08/10 09:02:03;;;;;;;;;;;22.90;54.10;;;;;;5063769;28;19935;-78
2022/08/10 09:04:28;;;;;;;;;;;22.90;53.30;;;;;;5071838;28;19924;-79
2022/08/10 09:06:57;;;;;;;;;;;23.00;53.70;;;;;;5058774;28;19913;-79
2022/08/10 09:09:41;;;;;;;;;;;23.10;52.80;;;;;;5051770;28;19921;-80
2022/08/10 09:12:16;;;;;;;;;;;23.10;52.90;;;;;;5056025;28;19914;-80
2022/08/10 09:14:50;;;;;;;;;;;23.10;53.90;;;;;;5056361;28;19912;-79
2022/08/10 09:17:27;;;;;;;;;;;23.30;53.00;;;;;;5055538;28;19919;-80
2022/08/10 09:20:08;;;;;;;;;;;23.30;52.60;;;;;;5033952;28;19917;-80
2022/08/10 09:22:45;;;;;;;;;;;23.40;52.40;;;;;;5046038;28;19951;-79
2022/08/10 09:25:14;;;;;;;;;;;23.60;51.40;;;;;;5048388;28;19909;-79
2022/08/10 09:27:42;;;;;;;;;;;23.60;51.90;;;;;;5055592;28;19916;-80
2022/08/10 09:30:09;;;;;;;;;;;23.70;51.10;;;;;;5040851;28;19960;-81
2022/08/10 09:32:48;;;;;;;;;;;23.70;51.00;;;;;;5055155;28;19913;-81
2022/08/10 09:35:17;;;;;;;;;;;24.00;48.90;;;;;;5031271;28;19917;-80
2022/08/10 09:37:50;;;;;;;;;;;24.40;48.90;;;;;;5036664;28;19921;-80
2022/08/10 09:40:34;;;;;;;;;;;24.20;49.50;;;;;;5032789;28;19913;-81
2022/08/10 09:42:59;;;;;;;;;;;24.30;50.00;;;;;;5032884;28;19912;-80
2022/08/10 09:45:40;;;;;;;;;;;24.30;49.40;;;;;;5058029;28;19917;-81
2022/08/10 09:48:05;;;;;;;;;;;24.50;46.70;;;;;;5036051;28;19966;-80
2022/08/10 09:50:50;;;;;;;;;;;24.80;47.00;;;;;;5046614;28;20427;-80
2022/08/10 09:53:19;;;;;;;;;;;24.80;46.30;;;;;;5036771;28;19916;-80
2022/08/10 09:56:05;;;;;;;;;;;24.60;46.90;;;;;;5037845;28;20008;-81
2022/08/10 09:58:38;;;;;;;;;;;24.70;45.90;;;;;;5010784;28;19951;-80
2022/08/10 10:01:14;;;;;;;;;;;24.70;46.00;;;;;;5057456;28;19955;-82
2022/08/10 10:03:54;;;;;;;;;;;24.70;47.70;;;;;;5058253;28;19995;-82
2022/08/10 10:06:19;;;;;;;;;;;25.00;44.60;;;;;;5060824;28;20287;-82
2022/08/10 10:08:50;;;;;;;;;;;25.00;45.90;;;;;;5038327;28;19913;-82
2022/08/10 10:11:25;;;;;;;;;;;25.00;45.60;;;;;;5049239;28;19913;-82
2022/08/10 10:14:09;;;;;;;;;;;25.10;45.20;;;;;;5049021;28;20007;-82
2022/08/10 10:16:53;;;;;;;;;;;25.20;43.60;;;;;;5044029;28;19951;-82
2022/08/10 10:19:32;;;;;;;;;;;25.30;44.80;;;;;;5050182;28;19913;-82
2022/08/10 10:22:11;;;;;;;;;;;25.50;42.80;;;;;;5045468;28;19917;-82
2022/08/10 10:24:44;;;;;;;;;;;25.60;43.00;;;;;;5028985;28;19912;-81
2022/08/10 10:27:28;;;;;;;;;;;25.40;44.50;;;;;;5045059;28;19936;-82
2022/08/10 10:30:01;;;;;;;;;;;25.40;42.20;;;;;;5066990;28;19919;-83
2022/08/10 10:32:45;;;;;;;;;;;25.30;43.50;;;;;;5066198;28;19948;-82
2022/08/10 10:35:22;;;;;;;;;;;25.30;44.60;;;;;;5066026;28;19988;-81
2022/08/10 10:37:50;;;;;;;;;;;25.40;43.80;;;;;;5035305;28;19932;-82
2022/08/10 10:40:16;;;;;;;;;;;25.50;42.50;;;;;;5059872;28;20315;-82
2022/08/10 10:42:42;;;;;;;;;;;25.50;44.00;;;;;;5053745;28;20383;-80
2022/08/10 10:45:19;;;;;;;;;;;25.50;43.80;;;;;;5061359;28;19916;-81
2022/08/10 10:47:52;;;;;;;;;;;25.50;42.60;;;;;;5046931;28;19932;-82
2022/08/10 10:50:26;;;;;;;;;;;25.50;43.50;;;;;;5056520;28;19916;-81
2022/08/10 10:53:00;;;;;;;;;;;25.60;41.90;;;;;;5061795;28;19923;-82
2022/08/10 10:55:29;;;;;;;;;;;25.50;43.50;;;;;;5040455;28;19917;-82
2022/08/10 10:58:10;;;;;;;;;;;25.60;43.40;;;;;;5057157;28;19999;-81
2022/08/10 11:00:42;;;;;;;;;;;25.80;43.10;;;;;;5050675;28;19917;-82
2022/08/10 11:03:20;;;;;;;;;;;26.00;39.10;;;;;;5052161;28;19920;-82
2022/08/10 11:06:04;;;;;;;;;;;26.00;41.10;;;;;;5038586;28;19916;-81
2022/08/10 11:08:32;;;;;;;;;;;25.90;40.40;;;;;;5046912;28;19963;-82
2022/08/10 11:11:08;;;;;;;;;;;25.90;40.30;;;;;;5060428;28;19928;-84
2022/08/10 11:13:57;;;;;;;;;;;26.00;40.70;;;;;;5059609;28;19976;-83
2022/08/10 11:16:25;;;;;;;;;;;26.10;39.30;;;;;;5025852;28;19970;-82
2022/08/10 11:18:54;;;;;;;;;;;26.00;40.90;;;;;;5051742;28;19939;-82
2022/08/10 11:21:30;;;;;;;;;;;26.00;41.00;;;;;;5055196;28;19943;-83
2022/08/10 11:23:55;;;;;;;;;;;26.00;40.80;;;;;;5060381;28;19959;-84
2022/08/10 11:26:25;;;;;;;;;;;26.20;39.90;;;;;;5056073;28;19920;-81
2022/08/10 11:28:56;;;;;;;;;;;26.10;40.50;;;;;;5055770;28;19908;-83
2022/08/10 11:31:42;;;;;;;;;;;26.20;38.70;;;;;;5054453;28;20360;-83
2022/08/10 11:34:21;;;;;;;;;;;26.00;39.50;;;;;;5059324;28;19942;-83
2022/08/10 11:36:52;;;;;;;;;;;26.10;41.30;;;;;;5026186;28;19922;-83
2022/08/10 11:39:38;;;;;;;;;;;26.10;38.80;;;;;;5049488;28;19987;-84
2022/08/10 11:42:13;;;;;;;;;;;26.40;38.60;;;;;;5052758;28;19963;-85
2022/08/10 11:44:44;;;;;;;;;;;26.50;37.60;;;;;;5034469;28;19920;-84
2022/08/10 11:47:11;;;;;;;;;;;26.70;37.40;;;;;;5049792;28;19920;-82
2022/08/10 11:49:37;;;;;;;;;;;26.90;37.10;;;;;;5059025;28;19924;-83
2022/08/10 11:52:05;;;;;;;;;;;27.00;38.00;;;;;;5032053;28;20443;-83
2022/08/10 11:54:42;;;;;;;;;;;27.00;37.30;;;;;;5034225;28;19921;-83
2022/08/10 11:57:07;;;;;;;;;;;26.80;37.40;;;;;;5039863;28;19920;-83
2022/08/10 12:02:20;;;;;;;;;;;26.60;38.20;;;;;;5055095;28;19924;-83
2022/08/10 12:04:54;;;;;;;;;;;26.60;38.50;;;;;;5039776;28;19917;-81
2022/08/10 12:07:20;;;;;;;;;;;26.60;38.90;;;;;;5044494;28;20006;-82
2022/08/10 12:09:47;;;;;;;;;;;26.60;38.90;;;;;;5044520;28;19964;-81
2022/08/10 12:12:12;;;;;;;;;;;26.50;37.70;;;;;;5055243;28;19924;-82
2022/08/10 12:14:56;;;;;;;;;;;26.60;38.00;;;;;;5027153;28;19917;-82
2022/08/10 12:17:25;;;;;;;;;;;26.60;38.30;;;;;;5047019;28;19991;-81
2022/08/10 12:19:54;;;;;;;;;;;26.60;36.80;;;;;;5044861;28;19920;-82
2022/08/10 12:22:22;;;;;;;;;;;26.70;37.70;;;;;;5065882;28;19923;-82
2022/08/10 12:24:50;;;;;;;;;;;26.90;36.50;;;;;;5044694;28;19912;-82
2022/08/10 12:27:20;;;;;;;;;;;27.00;38.00;;;;;;5050427;28;19917;-83
2022/08/10 12:29:52;;;;;;;;;;;26.80;36.90;;;;;;5032606;28;19920;-81
2022/08/10 12:32:27;;;;;;;;;;;26.80;38.40;;;;;;5045211;28;19921;-82
2022/08/10 12:34:55;;;;;;;;;;;26.60;37.00;;;;;;5043745;28;20353;-83
2022/08/10 12:37:21;;;;;;;;;;;26.70;38.50;;;;;;5046216;28;19912;-82
2022/08/10 12:39:52;;;;;;;;;;;26.90;37.70;;;;;;5051440;28;20355;-84
2022/08/10 12:42:25;;;;;;;;;;;26.90;37.20;;;;;;5033753;28;19942;-82
2022/08/10 12:44:53;;;;;;;;;;;27.10;37.70;;;;;;5035432;28;19923;-83
2022/08/10 12:47:24;;;;;;;;;;;27.00;37.60;;;;;;5042812;28;19912;-83
2022/08/10 12:49:52;;;;;;;;;;;27.00;37.90;;;;;;5040596;28;19919;-83
2022/08/10 12:52:21;;;;;;;;;;;27.00;37.60;;;;;;5066507;28;19980;-83
2022/08/10 12:54:48;;;;;;;;;;;27.10;36.60;;;;;;5066193;28;19915;-83
2022/08/10 12:57:14;;;;;;;;;;;27.30;36.40;;;;;;5049946;28;20371;-84
2022/08/10 12:59:41;;;;;;;;;;;27.60;35.40;;;;;;5035186;28;19913;-84
2022/08/10 13:02:08;;;;;;;;;;;27.50;35.40;;;;;;5048977;28;20012;-83
2022/08/10 13:04:34;;;;;;;;;;;27.30;35.60;;;;;;5034444;28;19913;-83
2022/08/10 13:07:01;;;;;;;;;;;27.10;35.70;;;;;;5029643;28;19916;-83
2022/08/10 13:09:27;;;;;;;;;;;27.20;35.70;;;;;;5050530;28;19912;-82
2022/08/10 13:12:01;;;;;;;;;;;27.40;34.90;;;;;;5034093;28;19916;-83
2022/08/10 13:14:41;;;;;;;;;;;27.30;35.80;;;;;;5031152;28;19962;-83
2022/08/10 13:17:08;;;;;;;;;;;27.60;33.70;;;;;;5045494;28;20330;-84
2022/08/10 13:19:35;;;;;;;;;;;27.60;34.00;;;;;;5039689;28;19920;-84
2022/08/10 13:22:01;;;;;;;;;;;27.70;34.30;;;;;;5030547;28;19960;-83
2022/08/10 13:24:29;;;;;;;;;;;27.80;34.50;;;;;;5057569;28;20403;-83
2022/08/10 13:27:00;;;;;;;;;;;27.60;35.50;;;;;;5031832;28;19937;-83
2022/08/10 13:29:27;;;;;;;;;;;27.50;35.90;;;;;;5053012;28;19913;-86
2022/08/10 13:31:55;;;;;;;;;;;27.50;34.90;;;;;;5050850;28;19976;-82
2022/08/10 13:34:22;;;;;;;;;;;27.60;35.40;;;;;;5055052;28;19917;-81
2022/08/10 13:36:49;;;;;;;;;;;28.00;34.20;;;;;;5034636;28;19917;-81
2022/08/10 13:39:17;;;;;;;;;;;27.70;35.00;;;;;;5052619;28;19965;-81
2022/08/10 13:41:45;;;;;;;;;;;27.60;34.00;;;;;;5063502;28;19913;-81
2022/08/10 13:44:14;;;;;;;;;;;27.90;33.50;;;;;;5069733;28;19943;-81
2022/08/10 13:46:41;;;;;;;;;;;27.80;34.70;;;;;;5036758;28;19948;-83
2022/08/10 13:49:08;;;;;;;;;;;27.70;35.30;;;;;;5046922;28;19913;-83
2022/08/10 13:51:35;;;;;;;;;;;27.90;34.00;;;;;;5045983;28;19928;-82
2022/08/10 13:54:01;;;;;;;;;;;28.00;34.20;;;;;;5049676;28;19913;-82
2022/08/10 13:56:28;;;;;;;;;;;28.10;34.60;;;;;;5055369;28;20387;-82
2022/08/10 13:58:53;;;;;;;;;;;27.80;34.50;;;;;;5045754;28;19932;-82
2022/08/10 14:01:23;;;;;;;;;;;27.70;35.60;;;;;;5049970;28;19912;-86
2022/08/10 14:03:50;;;;;;;;;;;27.50;35.60;;;;;;5034281;28;19939;-79
2022/08/10 14:06:16;;;;;;;;;;;27.50;37.70;;;;;;5051802;28;20357;-82
2022/08/10 14:08:47;;;;;;;;;;;27.30;35.30;;;;;;5050511;28;19921;-82
2022/08/10 14:11:14;;;;;;;;;;;27.40;36.00;;;;;;5035335;28;20429;-82
2022/08/10 14:13:42;;;;;;;;;;;27.50;35.50;;;;;;5029555;28;20275;-82
2022/08/10 14:16:09;;;;;;;;;;;27.50;35.10;;;;;;5052798;28;19958;-82
2022/08/10 14:18:35;;;;;;;;;;;27.70;35.20;;;;;;5052416;28;19991;-81
2022/08/10 14:21:01;;;;;;;;;;;27.60;34.00;;;;;;5051898;28;19915;-81
2022/08/10 14:23:27;;;;;;;;;;;27.60;34.50;;;;;;5035157;28;20281;-82
2022/08/10 14:25:55;;;;;;;;;;;27.50;34.90;;;;;;5052242;28;19916;-82
2022/08/10 14:28:23;;;;;;;;;;;27.50;35.80;;;;;;5047768;28;20015;-82
2022/08/10 14:31:01;;;;;;;;;;;27.50;36.30;;;;;;5048430;28;19917;-82
2022/08/10 14:33:27;;;;;;;;;;;27.80;35.90;;;;;;5051993;28;20008;-82
2022/08/10 14:35:54;;;;;;;;;;;28.10;35.00;;;;;;5029977;28;19921;-83
2022/08/10 14:38:21;;;;;;;;;;;28.30;33.70;;;;;;5036338;28;19916;-82
2022/08/10 14:40:50;;;;;;;;;;;28.30;33.70;;;;;;5054531;28;20287;-82
2022/08/10 14:43:18;;;;;;;;;;;28.20;34.80;;;;;;5055785;28;19951;-81